Time;durP1;ratioP1;P1;durP2;ratioP2;P2;SDS_P1;SDS_P2;PMS_P1;PMS_P2;Temp;Humidity;BMP_temperature;BMP_pressure;BME280_temperature;BME280_humidity;BME280_pressure;Samples;Min_cycle;Max_cycle;Signal;HPM_P1;HPM_P2
2023/04/22 00:02:15;;;;;;;;;31.00;29.00;23.50;36.80;;;;;;109922;1252;56266;-62
2023/04/22 00:04:45;;;;;;;;;38.00;32.00;23.40;36.80;;;;;;110001;1256;53386;-61
2023/04/22 00:07:14;;;;;;;;;31.33;30.00;23.40;36.80;;;;;;109840;1252;50311;-62
2023/04/22 00:09:41;;;;;;;;;32.00;29.50;23.40;37.30;;;;;;109973;1255;49576;-62
2023/04/22 00:12:10;;;;;;;;;35.00;30.00;23.40;37.10;;;;;;109930;1252;46679;-63
2023/04/22 00:14:37;;;;;;;;;33.50;29.00;23.40;36.80;;;;;;110057;1258;55893;-61
2023/04/22 00:17:05;;;;;;;;;30.00;27.00;23.40;37.00;;;;;;109915;1252;53884;-62
2023/04/22 00:19:33;;;;;;;;;37.00;32.00;23.40;36.70;;;;;;109934;1257;49859;-62
2023/04/22 00:22:00;;;;;;;;;36.00;29.00;23.40;36.80;;;;;;109923;1252;49951;-62
2023/04/22 00:24:28;;;;;;;;;39.00;32.00;23.40;36.80;;;;;;109994;1253;45162;-62
2023/04/22 00:26:55;;;;;;;;;35.00;30.00;23.40;36.80;;;;;;109996;1252;55547;-61
2023/04/22 00:29:22;;;;;;;;;36.00;31.00;23.40;36.80;;;;;;109992;1252;53611;-62
2023/04/22 00:31:49;;;;;;;;;29.50;28.00;23.40;36.80;;;;;;109899;1257;48908;-61
2023/04/22 00:34:19;;;;;;;;;31.00;28.50;23.40;37.10;;;;;;109916;1252;49559;-62
2023/04/22 00:36:46;;;;;;;;;37.67;31.67;23.30;36.80;;;;;;109951;1257;46581;-63
2023/04/22 00:39:13;;;;;;;;;35.00;30.00;23.30;36.80;;;;;;109903;1255;55643;-63
2023/04/22 00:41:40;;;;;;;;;30.33;28.67;23.30;37.00;;;;;;109869;1254;53367;-62
2023/04/22 00:44:09;;;;;;;;;38.50;32.00;23.30;36.90;;;;;;110025;1252;49920;-62
2023/04/22 00:46:38;;;;;;;;;37.00;32.00;23.30;36.90;;;;;;109946;1252;49540;-61
2023/04/22 00:49:06;;;;;;;;;33.00;31.00;23.30;37.10;;;;;;109941;1256;45664;-64
2023/04/22 00:51:33;;;;;;;;;39.67;33.00;23.30;36.90;;;;;;109917;1257;55865;-62
2023/04/22 00:54:00;;;;;;;;;34.00;30.00;23.30;37.00;;;;;;110108;1252;53696;-64
2023/04/22 00:56:29;;;;;;;;;34.50;31.00;23.30;36.50;;;;;;109919;1256;49889;-62
2023/04/22 00:58:56;;;;;;;;;32.00;27.00;23.30;36.90;;;;;;109771;1257;49959;-62
2023/04/22 01:01:23;;;;;;;;;36.33;31.67;23.30;36.90;;;;;;109883;1257;46310;-63
2023/04/22 01:03:51;;;;;;;;;36.00;31.00;23.30;37.00;;;;;;109922;1257;55051;-62
2023/04/22 01:06:22;;;;;;;;;39.00;33.00;23.30;37.30;;;;;;109868;1257;54006;-63
2023/04/22 01:08:49;;;;;;;;;37.00;31.00;23.30;37.20;;;;;;109934;1252;50358;-63
2023/04/22 01:11:16;;;;;;;;;33.00;31.00;23.30;37.20;;;;;;109931;1252;50672;-61
2023/04/22 01:13:42;;;;;;;;;29.00;26.00;23.30;37.30;;;;;;109970;1252;46277;-62
2023/04/22 01:16:09;;;;;;;;;33.00;30.50;23.20;37.30;;;;;;109917;1252;55882;-63
2023/04/22 01:18:36;;;;;;;;;32.00;30.00;23.20;37.50;;;;;;109840;1257;54254;-63
2023/04/22 01:21:04;;;;;;;;;34.00;30.00;23.20;37.30;;;;;;109886;1257;49516;-62
2023/04/22 01:23:32;;;;;;;;;35.00;32.00;23.20;37.40;;;;;;109908;1252;49212;-63
2023/04/22 01:25:59;;;;;;;;;30.00;29.00;23.20;37.40;;;;;;110021;1252;46000;-63
2023/04/22 01:28:27;;;;;;;;;37.00;32.00;23.20;37.40;;;;;;109982;1257;55930;-62
2023/04/22 01:30:55;;;;;;;;;37.33;31.67;23.20;37.70;;;;;;109867;1254;54974;-62
2023/04/22 01:33:22;;;;;;;;;34.00;30.00;23.20;37.50;;;;;;109951;1252;49182;-60
2023/04/22 01:35:50;;;;;;;;;37.00;31.50;23.20;37.60;;;;;;110028;1257;49077;-61
2023/04/22 01:38:17;;;;;;;;;38.00;31.25;23.20;38.10;;;;;;110017;1252;46225;-62
2023/04/22 01:40:44;;;;;;;;;31.00;29.00;23.20;37.60;;;;;;109933;1257;56325;-61
2023/04/22 01:43:11;;;;;;;;;29.67;28.67;23.20;37.60;;;;;;109946;1257;54487;-63
2023/04/22 01:45:38;;;;;;;;;37.00;32.00;23.20;37.70;;;;;;109997;1257;49724;-62
2023/04/22 01:48:09;;;;;;;;;32.00;30.00;23.20;37.70;;;;;;109891;1256;49437;-63
2023/04/22 01:50:36;;;;;;;;;36.00;32.00;23.20;37.90;;;;;;109885;1252;45584;-64
2023/04/22 01:53:06;;;;;;;;;34.50;31.50;23.20;37.70;;;;;;109963;1252;55610;-62
2023/04/22 01:55:34;;;;;;;;;39.50;33.50;23.20;37.80;;;;;;109926;1253;54572;-62
2023/04/22 01:58:02;;;;;;;;;38.00;31.00;23.20;37.80;;;;;;109911;1252;50756;-62
2023/04/22 02:00:30;;;;;;;;;35.33;32.67;23.20;37.70;;;;;;109871;1252;49409;-61
2023/04/22 02:02:57;;;;;;;;;41.00;33.00;23.20;37.80;;;;;;110027;1256;45662;-61
2023/04/22 02:05:25;;;;;;;;;39.00;33.00;23.20;38.00;;;;;;109970;1253;56177;-61
2023/04/22 02:07:52;;;;;;;;;34.00;31.50;23.10;37.90;;;;;;110018;1252;54562;-61
2023/04/22 02:10:19;;;;;;;;;32.25;30.00;23.20;37.70;;;;;;109920;1253;50101;-64
2023/04/22 02:12:46;;;;;;;;;34.50;29.00;23.10;37.60;;;;;;109978;1256;49565;-62
2023/04/22 02:15:13;;;;;;;;;32.50;31.00;23.10;38.20;;;;;;110019;1257;46099;-62
2023/04/22 02:17:42;;;;;;;;;33.00;31.00;23.10;37.70;;;;;;109883;1254;55831;-62
2023/04/22 02:20:10;;;;;;;;;36.00;32.00;23.10;37.60;;;;;;109903;1254;53489;-61
2023/04/22 02:22:37;;;;;;;;;38.00;33.00;23.10;37.20;;;;;;109933;1252;49730;-62
2023/04/22 02:25:05;;;;;;;;;38.50;34.00;23.10;37.60;;;;;;109946;1257;49135;-61
2023/04/22 02:27:32;;;;;;;;;38.00;31.00;23.10;37.70;;;;;;109930;1253;45272;-61
2023/04/22 02:29:59;;;;;;;;;36.00;30.00;23.10;37.90;;;;;;109864;1254;55601;-61
2023/04/22 02:32:26;;;;;;;;;35.00;32.00;23.10;37.70;;;;;;109942;1252;53663;-61
2023/04/22 02:34:53;;;;;;;;;35.00;31.33;23.10;37.70;;;;;;109977;1252;49807;-61
2023/04/22 02:37:21;;;;;;;;;35.33;30.33;23.10;37.70;;;;;;109925;1252;49793;-61
2023/04/22 02:39:48;;;;;;;;;33.33;29.67;23.10;37.70;;;;;;110015;1252;46842;-62
2023/04/22 02:42:15;;;;;;;;;38.00;32.00;23.10;37.70;;;;;;109889;1257;55472;-62
2023/04/22 02:44:42;;;;;;;;;34.50;31.00;23.00;37.70;;;;;;110001;1256;54565;-62
2023/04/22 02:47:09;;;;;;;;;30.00;28.75;23.00;37.20;;;;;;110009;1252;49228;-62
2023/04/22 02:49:36;;;;;;;;;31.00;29.00;23.00;37.90;;;;;;109955;1255;49736;-62
2023/04/22 02:52:04;;;;;;;;;36.50;32.50;23.00;37.70;;;;;;109985;1253;46257;-61
2023/04/22 02:54:31;;;;;;;;;38.00;31.00;23.00;37.70;;;;;;110006;1254;56359;-62
2023/04/22 02:56:58;;;;;;;;;37.50;32.00;23.00;37.70;;;;;;109958;1256;53624;-63
2023/04/22 02:59:24;;;;;;;;;33.00;31.00;23.00;37.70;;;;;;109917;1252;49391;-61
2023/04/22 03:01:52;;;;;;;;;37.00;32.50;23.00;37.60;;;;;;109911;1253;50140;-62
2023/04/22 03:04:20;;;;;;;;;34.00;32.00;23.00;37.60;;;;;;109924;1252;45950;-60
2023/04/22 03:06:48;;;;;;;;;37.00;32.00;23.00;37.80;;;;;;109894;1257;55943;-61
2023/04/22 03:09:16;;;;;;;;;37.00;31.00;23.00;37.60;;;;;;109839;1257;54517;-60
2023/04/22 03:11:43;;;;;;;;;27.50;27.00;22.90;37.50;;;;;;109869;1257;49394;-62
2023/04/22 03:14:10;;;;;;;;;38.00;33.00;22.90;37.60;;;;;;109876;1254;49560;-63
2023/04/22 03:16:37;;;;;;;;;35.00;31.00;22.90;37.60;;;;;;109886;1252;46100;-63
2023/04/22 03:19:04;;;;;;;;;39.00;32.67;23.00;37.70;;;;;;109960;1252;56211;-63
2023/04/22 03:21:31;;;;;;;;;35.33;31.33;23.00;37.80;;;;;;109904;1252;54826;-63
2023/04/22 03:23:58;;;;;;;;;35.00;31.00;23.00;37.90;;;;;;110014;1256;49871;-62
2023/04/22 03:26:25;;;;;;;;;38.00;31.00;23.00;38.10;;;;;;109975;1254;49555;-61
2023/04/22 03:28:52;;;;;;;;;37.50;32.00;23.00;38.20;;;;;;109945;1257;45829;-62
2023/04/22 03:31:19;;;;;;;;;34.00;32.00;23.10;38.40;;;;;;109979;1252;55947;-62
2023/04/22 03:33:46;;;;;;;;;36.00;32.00;23.10;38.60;;;;;;109922;1252;53960;-62
2023/04/22 03:36:13;;;;;;;;;34.50;29.50;23.10;38.70;;;;;;109965;1252;50507;-62
2023/04/22 03:38:40;;;;;;;;;40.00;34.00;23.10;38.80;;;;;;109905;1256;50316;-63
2023/04/22 03:41:07;;;;;;;;;37.00;31.00;23.10;38.80;;;;;;109851;1257;46133;-63
2023/04/22 03:43:34;;;;;;;;;35.00;32.00;23.10;39.00;;;;;;109922;1252;56318;-65
2023/04/22 03:46:01;;;;;;;;;39.50;33.50;23.10;38.80;;;;;;109926;1252;53622;-71
2023/04/22 03:48:34;;;;;;;;;34.67;29.33;23.10;39.40;;;;;;110069;1256;50354;-60
2023/04/22 03:51:01;;;;;;;;;36.00;32.00;23.10;39.70;;;;;;109927;1256;49172;-62
2023/04/22 03:53:28;;;;;;;;;37.00;33.00;23.20;39.50;;;;;;110043;1257;45292;-60
2023/04/22 03:55:55;;;;;;;;;33.00;29.00;23.20;39.20;;;;;;109981;1257;56079;-59
2023/04/22 03:58:22;;;;;;;;;32.00;30.00;23.20;39.30;;;;;;109928;1255;54186;-59
2023/04/22 04:00:49;;;;;;;;;39.00;33.67;23.20;39.40;;;;;;109919;1252;49704;-59
2023/04/22 04:03:16;;;;;;;;;34.00;31.00;23.20;39.50;;;;;;109958;1256;50614;-58
2023/04/22 04:05:43;;;;;;;;;34.50;31.50;23.20;40.00;;;;;;109993;1254;45438;-58
2023/04/22 04:08:11;;;;;;;;;37.00;33.00;23.20;39.90;;;;;;109943;1255;55604;-58
2023/04/22 04:10:38;;;;;;;;;32.33;29.67;23.20;39.80;;;;;;109886;1257;54763;-59
2023/04/22 04:13:05;;;;;;;;;34.00;30.25;23.20;39.50;;;;;;109989;1257;49887;-58
2023/04/22 04:15:32;;;;;;;;;36.50;31.00;23.20;39.90;;;;;;109975;1257;49562;-58
2023/04/22 04:18:00;;;;;;;;;39.00;33.00;23.20;41.10;;;;;;110023;1252;45747;-58
2023/04/22 04:20:27;;;;;;;;;35.00;31.00;23.20;43.00;;;;;;109930;1252;56769;-60
2023/04/22 04:22:55;;;;;;;;;42.00;33.50;23.20;42.80;;;;;;109921;1252;53607;-60
2023/04/22 04:25:22;;;;;;;;;46.50;36.50;23.10;42.10;;;;;;109969;1255;49657;-60
2023/04/22 04:27:50;;;;;;;;;54.00;40.00;23.10;41.50;;;;;;109875;1257;48853;-58
2023/04/22 04:30:18;;;;;;;;;49.00;38.00;23.20;42.10;;;;;;109900;1252;47076;-58
2023/04/22 04:32:45;;;;;;;;;54.00;39.00;23.10;42.20;;;;;;109964;1252;55822;-59
2023/04/22 04:35:13;;;;;;;;;54.00;38.00;23.10;42.40;;;;;;109885;1252;54032;-60
2023/04/22 04:37:43;;;;;;;;;48.00;38.00;23.10;42.40;;;;;;109858;1256;49852;-58
2023/04/22 04:40:13;;;;;;;;;51.00;37.00;23.10;42.00;;;;;;109884;1252;49972;-58
2023/04/22 04:42:41;;;;;;;;;49.50;37.50;23.10;42.60;;;;;;109773;1257;45689;-58
2023/04/22 04:45:08;;;;;;;;;43.50;35.00;23.10;42.50;;;;;;109633;1255;56133;-58
2023/04/22 04:47:35;;;;;;;;;46.00;36.00;23.10;42.70;;;;;;109868;1252;54177;-57
2023/04/22 04:50:03;;;;;;;;;42.00;33.00;23.10;42.20;;;;;;109020;1256;1096588;-59
2023/04/22 04:52:30;;;;;;;;;36.00;31.00;23.10;42.10;;;;;;109921;1252;49637;-58
2023/04/22 04:54:57;;;;;;;;;34.67;31.67;23.00;42.00;;;;;;109927;1257;46744;-58
2023/04/22 04:57:24;;;;;;;;;38.00;32.00;23.00;42.00;;;;;;109956;1256;56674;-57
2023/04/22 04:59:51;;;;;;;;;36.00;32.00;23.00;42.00;;;;;;109976;1253;53730;-59
2023/04/22 05:02:18;;;;;;;;;39.75;32.75;22.90;42.00;;;;;;110006;1252;50407;-58
2023/04/22 05:04:45;;;;;;;;;42.00;32.50;22.90;42.00;;;;;;110027;1254;49379;-57
2023/04/22 05:07:12;;;;;;;;;40.00;34.50;22.90;42.00;;;;;;109966;1253;46078;-59
2023/04/22 05:09:39;;;;;;;;;37.00;32.50;22.90;42.00;;;;;;109925;1258;55769;-59
2023/04/22 05:12:07;;;;;;;;;41.00;32.00;22.90;42.00;;;;;;109907;1256;54772;-59
2023/04/22 05:14:34;;;;;;;;;42.00;33.50;22.80;41.90;;;;;;110006;1255;49512;-58
2023/04/22 05:17:01;;;;;;;;;48.50;36.00;22.80;41.90;;;;;;109998;1252;49769;-58
2023/04/22 05:19:28;;;;;;;;;45.00;34.00;22.80;41.90;;;;;;110030;1255;45793;-59
2023/04/22 05:21:55;;;;;;;;;41.00;33.00;22.80;41.90;;;;;;109950;1257;55231;-58
2023/04/22 05:24:22;;;;;;;;;38.33;32.00;22.80;41.80;;;;;;109971;1252;53711;-58
2023/04/22 05:26:49;;;;;;;;;39.00;33.00;22.80;41.90;;;;;;110011;1257;49622;-58
2023/04/22 05:29:16;;;;;;;;;44.00;33.00;22.80;41.90;;;;;;109908;1252;49728;-58
2023/04/22 05:31:43;;;;;;;;;40.00;32.00;22.80;42.10;;;;;;110002;1255;45363;-58
2023/04/22 05:34:11;;;;;;;;;41.50;33.00;22.80;41.90;;;;;;110003;1257;56769;-58
2023/04/22 05:36:38;;;;;;;;;40.50;33.00;22.70;41.80;;;;;;109959;1256;54101;-59
2023/04/22 05:39:05;;;;;;;;;37.00;31.00;22.70;41.80;;;;;;109951;1256;50442;-58
2023/04/22 05:41:32;;;;;;;;;39.50;32.00;22.80;41.90;;;;;;109975;1254;49444;-58
2023/04/22 05:43:59;;;;;;;;;44.00;37.00;22.70;41.70;;;;;;110037;1252;45868;-57
2023/04/22 05:46:26;;;;;;;;;33.50;31.50;22.70;41.90;;;;;;109979;1252;56470;-58
2023/04/22 05:48:54;;;;;;;;;35.67;32.33;22.70;41.70;;;;;;110042;1252;53824;-58
2023/04/22 05:51:22;;;;;;;;;38.50;32.00;22.70;41.70;;;;;;109957;1253;49174;-57
2023/04/22 05:53:49;;;;;;;;;37.00;32.00;22.70;41.70;;;;;;110077;1252;49684;-58
2023/04/22 05:56:16;;;;;;;;;38.67;32.33;22.70;41.60;;;;;;109960;1252;45429;-59
2023/04/22 05:58:44;;;;;;;;;36.00;30.00;22.70;41.60;;;;;;110050;1255;56053;-58
2023/04/22 06:01:12;;;;;;;;;44.50;30.50;22.70;41.60;;;;;;110061;1257;55284;-57
2023/04/22 06:03:39;;;;;;;;;35.00;30.00;22.70;41.60;;;;;;109933;1256;49595;-57
2023/04/22 06:06:06;;;;;;;;;37.00;29.00;22.70;41.50;;;;;;109971;1257;50347;-57
2023/04/22 06:08:33;;;;;;;;;33.67;31.00;22.70;41.70;;;;;;110007;1254;46882;-58
2023/04/22 06:11:00;;;;;;;;;32.00;29.00;22.80;41.50;;;;;;109925;1254;55780;-57
2023/04/22 06:13:27;;;;;;;;;33.75;30.00;22.80;41.50;;;;;;109981;1252;54535;-64
2023/04/22 06:15:54;;;;;;;;;42.00;33.00;22.80;41.50;;;;;;110006;1252;51296;-58
2023/04/22 06:18:21;;;;;;;;;36.00;29.00;22.80;41.50;;;;;;109966;1254;49282;-60
2023/04/22 06:20:48;;;;;;;;;35.00;30.00;22.80;41.40;;;;;;110016;1252;45740;-57
2023/04/22 06:23:15;;;;;;;;;36.00;32.00;22.80;41.60;;;;;;110119;1256;56093;-58
2023/04/22 06:25:42;;;;;;;;;39.00;31.00;22.80;41.30;;;;;;110100;1253;54433;-57
2023/04/22 06:28:09;;;;;;;;;35.00;28.00;22.80;41.30;;;;;;109960;1257;49751;-57
2023/04/22 06:30:36;;;;;;;;;33.00;28.50;22.80;41.20;;;;;;109979;1256;48844;-58
2023/04/22 06:33:03;;;;;;;;;39.50;33.50;22.80;41.30;;;;;;109970;1252;45916;-59
2023/04/22 06:35:30;;;;;;;;;32.00;28.00;22.80;41.10;;;;;;110016;1252;55909;-58
2023/04/22 06:37:57;;;;;;;;;36.00;31.00;22.80;41.10;;;;;;109944;1257;54165;-58
2023/04/22 06:40:24;;;;;;;;;36.00;32.00;22.80;41.20;;;;;;109923;1254;50490;-57
2023/04/22 06:42:51;;;;;;;;;34.00;31.00;22.80;41.50;;;;;;109929;1256;49581;-58
2023/04/22 06:45:19;;;;;;;;;32.00;26.00;22.90;41.00;;;;;;110043;1252;45793;-57
2023/04/22 06:47:46;;;;;;;;;33.00;29.50;22.90;41.10;;;;;;109974;1257;56400;-58
2023/04/22 06:50:13;;;;;;;;;31.00;29.00;22.90;40.90;;;;;;109951;1257;53884;-58
2023/04/22 06:52:40;;;;;;;;;39.50;31.00;22.90;40.80;;;;;;110038;1252;49571;-57
2023/04/22 06:55:07;;;;;;;;;38.00;33.00;22.90;40.80;;;;;;110010;1252;49131;-56
2023/04/22 06:57:34;;;;;;;;;31.50;28.00;22.90;40.70;;;;;;109959;1257;46443;-58
2023/04/22 07:00:09;;;;;;;;;32.67;28.67;23.00;40.90;;;;;;109903;1252;55438;-58
2023/04/22 07:02:36;;;;;;;;;39.00;31.00;23.00;40.40;;;;;;109932;1257;53701;-59
2023/04/22 07:05:04;;;;;;;;;29.33;27.67;23.00;40.60;;;;;;109983;1255;49064;-59
2023/04/22 07:07:31;;;;;;;;;34.00;30.50;23.10;40.70;;;;;;109892;1257;49766;-58
2023/04/22 07:09:58;;;;;;;;;31.00;28.50;23.10;40.60;;;;;;109973;1253;45292;-58
2023/04/22 07:12:25;;;;;;;;;32.00;28.00;23.10;40.60;;;;;;109946;1257;55592;-58
2023/04/22 07:14:52;;;;;;;;;30.00;28.00;23.10;40.60;;;;;;110017;1252;53643;-58
2023/04/22 07:17:21;;;;;;;;;33.00;31.00;23.10;40.60;;;;;;109979;1253;49997;-58
2023/04/22 07:19:48;;;;;;;;;29.00;26.00;23.20;40.60;;;;;;109956;1255;49371;-58
2023/04/22 07:22:15;;;;;;;;;30.50;28.00;23.20;40.50;;;;;;109935;1252;45330;-57
2023/04/22 07:24:42;;;;;;;;;31.00;27.00;23.30;40.60;;;;;;110093;1255;55221;-59
2023/04/22 07:27:09;;;;;;;;;30.00;27.00;23.30;40.80;;;;;;110091;1253;53421;-60
2023/04/22 07:29:36;;;;;;;;;32.50;28.00;23.30;40.70;;;;;;110006;1252;49853;-58
2023/04/22 07:32:03;;;;;;;;;28.00;27.00;23.30;40.60;;;;;;109980;1254;49683;-59
2023/04/22 07:34:30;;;;;;;;;27.33;25.00;23.40;40.50;;;;;;110027;1257;46780;-58
2023/04/22 07:36:57;;;;;;;;;30.00;28.00;23.40;40.50;;;;;;109976;1252;55585;-59
2023/04/22 07:39:24;;;;;;;;;30.00;27.50;23.40;40.40;;;;;;109920;1252;54187;-59
2023/04/22 07:41:52;;;;;;;;;29.25;26.50;23.50;40.40;;;;;;109971;1252;49818;-58
2023/04/22 07:44:20;;;;;;;;;35.00;29.00;23.50;40.40;;;;;;109981;1252;49917;-58
2023/04/22 07:46:47;;;;;;;;;30.50;25.50;23.50;40.30;;;;;;110013;1256;46068;-58
2023/04/22 07:49:15;;;;;;;;;31.00;27.00;23.60;40.60;;;;;;110012;1257;56752;-58
2023/04/22 07:51:43;;;;;;;;;35.00;29.00;23.60;40.30;;;;;;110000;1256;54410;-59
2023/04/22 07:54:10;;;;;;;;;34.67;29.00;23.60;40.40;;;;;;109957;1252;49878;-58
2023/04/22 07:56:37;;;;;;;;;32.00;29.67;23.70;40.40;;;;;;109872;1257;49525;-59
2023/04/22 07:59:04;;;;;;;;;32.00;26.00;23.70;40.20;;;;;;109931;1257;45873;-58
2023/04/22 08:01:31;;;;;;;;;31.00;29.00;23.70;40.30;;;;;;110019;1256;55295;-58
2023/04/22 08:03:58;;;;;;;;;32.00;27.00;23.80;39.80;;;;;;110034;1255;54385;-58
2023/04/22 08:06:26;;;;;;;;;36.00;30.00;23.80;40.00;;;;;;109905;1254;49073;-59
2023/04/22 08:08:54;;;;;;;;;30.00;27.00;23.80;40.00;;;;;;109995;1253;49249;-57
2023/04/22 08:11:21;;;;;;;;;31.00;27.50;23.90;40.00;;;;;;109990;1252;46251;-57
2023/04/22 08:13:48;;;;;;;;;31.00;30.00;23.90;40.00;;;;;;109984;1252;56582;-58
2023/04/22 08:16:15;;;;;;;;;33.00;29.00;23.90;40.00;;;;;;109980;1257;53526;-58
2023/04/22 08:18:42;;;;;;;;;27.00;26.00;23.90;39.50;;;;;;109936;1255;49267;-62
2023/04/22 08:21:09;;;;;;;;;31.00;28.00;24.00;39.90;;;;;;109933;1252;50438;-58
2023/04/22 08:23:36;;;;;;;;;31.00;27.00;24.00;39.90;;;;;;110006;1257;45775;-56
2023/04/22 08:26:03;;;;;;;;;31.00;29.00;24.00;39.80;;;;;;109972;1256;57284;-58
2023/04/22 08:28:30;;;;;;;;;33.00;31.00;24.00;39.70;;;;;;109969;1252;54255;-59
2023/04/22 08:30:57;;;;;;;;;28.50;27.50;24.10;39.80;;;;;;109976;1252;50498;-59
2023/04/22 08:33:24;;;;;;;;;27.50;27.00;24.10;39.70;;;;;;109974;1257;50635;-57
2023/04/22 08:35:52;;;;;;;;;28.67;27.67;24.10;39.70;;;;;;110334;1252;45339;-58
2023/04/22 08:38:19;;;;;;;;;27.00;26.00;24.20;39.70;;;;;;109967;1252;55518;-58
2023/04/22 08:40:46;;;;;;;;;26.50;26.00;24.20;39.80;;;;;;109891;1252;54518;-58
2023/04/22 08:43:13;;;;;;;;;28.00;26.00;24.20;39.60;;;;;;109931;1252;49908;-58
2023/04/22 08:45:41;;;;;;;;;29.00;27.00;24.30;39.70;;;;;;110070;1252;49996;-58
2023/04/22 08:48:08;;;;;;;;;29.00;25.00;24.30;39.60;;;;;;109982;1257;46409;-58
2023/04/22 08:50:38;;;;;;;;;25.50;24.50;24.30;39.50;;;;;;109923;1256;55636;-58
2023/04/22 08:53:05;;;;;;;;;28.00;27.00;24.30;39.70;;;;;;109999;1256;53888;-57
2023/04/22 08:55:34;;;;;;;;;27.33;25.00;24.40;39.40;;;;;;109945;1252;49288;-59
2023/04/22 08:58:04;;;;;;;;;32.00;29.00;24.40;39.50;;;;;;109942;1253;49294;-59
2023/04/22 09:00:33;;;;;;;;;29.00;28.00;24.40;39.50;;;;;;109984;1257;46241;-57
2023/04/22 09:03:01;;;;;;;;;30.00;29.00;24.40;39.40;;;;;;110004;1252;55768;-58
2023/04/22 09:05:32;;;;;;;;;28.00;25.50;24.50;39.40;;;;;;110000;1252;54974;-60
2023/04/22 09:08:00;;;;;;;;;25.67;24.67;24.50;39.40;;;;;;109905;1256;49729;-59
2023/04/22 09:10:27;;;;;;;;;27.00;26.00;24.50;39.40;;;;;;109911;1252;49572;-61
2023/04/22 09:12:55;;;;;;;;;27.00;26.00;24.50;39.50;;;;;;109909;1255;46269;-57
2023/04/22 09:15:24;;;;;;;;;26.50;23.00;24.50;39.40;;;;;;109977;1257;55121;-58
2023/04/22 09:17:51;;;;;;;;;28.00;26.00;24.60;39.70;;;;;;110021;1257;53936;-58
2023/04/22 09:20:18;;;;;;;;;26.50;25.50;24.60;39.40;;;;;;109913;1257;49113;-57
2023/04/22 09:22:47;;;;;;;;;24.33;23.00;24.60;39.30;;;;;;109987;1257;49734;-58
2023/04/22 09:25:16;;;;;;;;;30.00;28.00;24.60;39.30;;;;;;109984;1252;46477;-58
2023/04/22 09:27:57;;;;;;;;;29.00;26.00;24.60;39.30;;;;;;109956;1252;56852;-57
2023/04/22 09:30:30;;;;;;;;;28.00;26.00;24.70;39.60;;;;;;109982;1255;54760;-58
2023/04/22 09:33:02;;;;;;;;;27.00;25.00;24.70;38.80;;;;;;109981;1255;49483;-56
2023/04/22 09:35:30;;;;;;;;;27.00;25.50;24.70;39.20;;;;;;109972;1257;50079;-58
2023/04/22 09:37:59;;;;;;;;;24.00;23.00;24.70;39.30;;;;;;109961;1257;45929;-59
2023/04/22 09:40:27;;;;;;;;;30.00;26.00;24.80;39.30;;;;;;109926;1252;55930;-58
2023/04/22 09:42:57;;;;;;;;;25.67;24.67;24.80;39.50;;;;;;109966;1253;57148;-58
2023/04/22 09:45:35;;;;;;;;;29.00;26.00;24.80;39.30;;;;;;110011;1254;49122;-57
2023/04/22 09:48:14;;;;;;;;;27.00;24.00;24.90;39.40;;;;;;109967;1253;48985;-59
2023/04/22 09:50:50;;;;;;;;;24.00;23.00;24.90;39.30;;;;;;110025;1252;45886;-59
2023/04/22 09:53:18;;;;;;;;;27.50;26.50;24.90;39.40;;;;;;109902;1255;55963;-58
2023/04/22 09:55:52;;;;;;;;;24.50;22.00;24.90;39.20;;;;;;110017;1252;54740;-58
2023/04/22 09:58:22;;;;;;;;;25.00;23.00;24.90;39.20;;;;;;110014;1256;49706;-59
2023/04/22 10:00:51;;;;;;;;;27.50;25.00;25.00;39.40;;;;;;110008;1257;50668;-58
2023/04/22 10:03:18;;;;;;;;;25.00;24.00;25.00;39.20;;;;;;109973;1256;46377;-58
2023/04/22 10:05:45;;;;;;;;;24.00;23.00;25.00;39.10;;;;;;109973;1256;56697;-59
2023/04/22 10:08:14;;;;;;;;;25.50;23.50;25.00;39.10;;;;;;109928;1254;54513;-57
2023/04/22 10:10:41;;;;;;;;;26.00;22.00;25.00;39.10;;;;;;109971;1252;49755;-58
2023/04/22 10:13:09;;;;;;;;;26.00;23.50;25.10;39.20;;;;;;109938;1252;49130;-59
2023/04/22 10:15:42;;;;;;;;;24.00;23.00;25.10;39.20;;;;;;109911;1257;46406;-58
2023/04/22 10:18:12;;;;;;;;;27.00;25.00;25.10;39.20;;;;;;110033;1252;56219;-58
2023/04/22 10:20:40;;;;;;;;;25.00;24.00;25.10;39.10;;;;;;109988;1257;53771;-57
2023/04/22 10:23:17;;;;;;;;;27.00;25.00;25.10;39.10;;;;;;109891;1257;49473;-59
2023/04/22 10:25:50;;;;;;;;;27.00;24.00;25.20;39.20;;;;;;109964;1254;50289;-59
2023/04/22 10:28:17;;;;;;;;;30.00;27.00;25.20;39.20;;;;;;109976;1254;45770;-58
2023/04/22 10:30:44;;;;;;;;;24.50;23.50;25.20;39.10;;;;;;110047;1254;55757;-59
2023/04/22 10:33:20;;;;;;;;;22.00;21.00;25.20;39.10;;;;;;109928;1256;53678;-59
2023/04/22 10:36:09;;;;;;;;;24.67;23.67;25.20;39.00;;;;;;109923;1252;50497;-58
2023/04/22 10:38:40;;;;;;;;;26.00;22.00;25.20;39.30;;;;;;109904;1253;49868;-58
2023/04/22 10:41:22;;;;;;;;;29.00;26.00;25.20;39.00;;;;;;109966;1257;45468;-63
2023/04/22 10:43:57;;;;;;;;;32.00;26.00;25.20;39.20;;;;;;109978;1253;56433;-58
2023/04/22 10:46:34;;;;;;;;;27.00;26.00;25.30;39.00;;;;;;107706;1252;3010926;-58
2023/04/22 10:49:17;;;;;;;;;26.50;23.00;25.30;39.00;;;;;;109965;1254;49903;-57
2023/04/22 10:51:46;;;;;;;;;25.00;22.00;25.30;38.90;;;;;;109979;1257;49898;-59
2023/04/22 10:54:25;;;;;;;;;23.00;22.00;25.30;39.10;;;;;;109949;1256;45282;-58
2023/04/22 10:57:03;;;;;;;;;26.50;24.50;25.30;38.90;;;;;;109932;1256;55361;-59
2023/04/22 10:59:33;;;;;;;;;22.00;21.00;25.30;38.90;;;;;;109998;1252;54555;-59
2023/04/22 11:02:12;;;;;;;;;28.00;23.00;25.30;38.90;;;;;;109926;1257;50078;-59
2023/04/22 11:04:39;;;;;;;;;26.00;22.33;25.30;38.90;;;;;;109964;1252;49640;-59
2023/04/22 11:07:25;;;;;;;;;22.33;21.33;25.40;38.90;;;;;;109950;1256;46011;-59
2023/04/22 11:10:01;;;;;;;;;24.50;21.50;25.40;38.90;;;;;;109924;1252;55909;-58
2023/04/22 11:12:34;;;;;;;;;23.33;22.33;25.40;38.80;;;;;;109934;1256;53512;-58
2023/04/22 11:15:05;;;;;;;;;21.00;19.00;25.40;39.00;;;;;;109931;1252;50264;-58
2023/04/22 11:17:32;;;;;;;;;28.50;24.00;25.40;38.80;;;;;;109907;1252;49760;-58
2023/04/22 11:20:00;;;;;;;;;24.00;21.00;25.40;38.80;;;;;;109941;1252;45789;-59
2023/04/22 11:22:27;;;;;;;;;23.50;22.00;25.40;38.80;;;;;;109908;1256;54983;-59
2023/04/22 11:24:55;;;;;;;;;21.00;19.00;25.40;39.00;;;;;;109905;1256;54526;-60
2023/04/22 11:27:26;;;;;;;;;22.50;19.50;25.40;38.80;;;;;;109903;1256;48996;-59
2023/04/22 11:30:07;;;;;;;;;23.00;22.00;25.40;39.00;;;;;;109932;1252;49986;-58
2023/04/22 11:32:40;;;;;;;;;22.00;18.33;25.40;38.90;;;;;;109910;1257;45502;-58
2023/04/22 11:35:10;;;;;;;;;24.33;21.33;25.40;38.90;;;;;;109956;1252;56383;-58
2023/04/22 11:37:53;;;;;;;;;27.00;25.00;25.40;38.90;;;;;;109959;1257;54325;-58
2023/04/22 11:40:26;;;;;;;;;22.67;21.67;25.40;38.90;;;;;;109884;1255;49672;-58
2023/04/22 11:42:53;;;;;;;;;27.50;22.00;25.40;38.80;;;;;;109956;1252;50540;-58
2023/04/22 11:45:21;;;;;;;;;23.25;22.25;25.40;38.90;;;;;;109988;1256;45639;-57
2023/04/22 11:47:49;;;;;;;;;25.50;22.50;25.40;38.90;;;;;;109885;1256;56265;-58
2023/04/22 11:50:20;;;;;;;;;21.00;20.00;25.40;38.80;;;;;;109952;1256;54074;-56
2023/04/22 11:52:50;;;;;;;;;23.00;21.00;25.40;38.80;;;;;;109922;1252;49993;-58
2023/04/22 11:55:32;;;;;;;;;23.00;21.00;25.40;38.80;;;;;;109935;1255;50493;-58
2023/04/22 11:58:06;;;;;;;;;24.00;23.00;25.40;38.80;;;;;;109936;1255;45998;-59
2023/04/22 12:00:42;;;;;;;;;20.00;19.00;25.40;39.40;;;;;;109953;1257;56059;-59
2023/04/22 12:03:13;;;;;;;;;20.00;19.00;25.40;38.90;;;;;;109913;1257;54519;-59
2023/04/22 12:05:45;;;;;;;;;22.00;21.00;25.40;38.90;;;;;;109918;1257;50913;-58
2023/04/22 12:08:18;;;;;;;;;29.00;23.00;25.40;38.80;;;;;;109947;1252;49563;-57
2023/04/22 12:10:47;;;;;;;;;31.00;23.00;25.40;38.80;;;;;;110012;1254;45784;-58
2023/04/22 12:13:31;;;;;;;;;24.00;19.00;25.40;38.80;;;;;;109976;1253;55732;-59
2023/04/22 12:16:03;;;;;;;;;23.00;21.00;25.40;38.90;;;;;;109934;1252;54530;-59
2023/04/22 12:18:36;;;;;;;;;23.00;21.50;25.40;39.20;;;;;;109953;1257;49211;-58
2023/04/22 12:21:03;;;;;;;;;20.50;19.50;25.40;38.80;;;;;;110000;1252;48904;-59
2023/04/22 12:23:49;;;;;;;;;23.00;18.75;25.40;38.80;;;;;;109955;1252;46298;-59
2023/04/22 12:26:18;;;;;;;;;25.00;22.00;25.40;38.80;;;;;;109995;1252;56493;-58